createdAt,value
2022-11-12T00:01:00.033Z,101837.22
2022-11-12T00:03:27.184Z,101838.00
2022-11-12T00:05:54.436Z,101842.34
2022-11-12T00:08:21.788Z,101833.50
2022-11-12T00:10:48.985Z,101837.72
2022-11-12T00:13:15.776Z,101838.63
2022-11-12T00:15:42.751Z,101840.16
2022-11-12T00:18:09.680Z,101840.09
2022-11-12T00:20:36.567Z,101841.66
2022-11-12T00:23:04.171Z,101838.91
2022-11-12T00:25:31.321Z,101840.34
2022-11-12T00:28:05.947Z,101821.00
2022-11-12T00:30:33.410Z,101800.22
2022-11-12T00:33:04.038Z,101812.13
2022-11-12T00:35:34.514Z,101821.81
2022-11-12T00:38:01.854Z,101824.97
2022-11-12T00:40:29.780Z,101819.38
2022-11-12T00:42:56.985Z,101824.28
2022-11-12T00:45:24.656Z,101821.22
2022-11-12T00:47:55.694Z,101827.78
2022-11-12T00:50:22.530Z,101823.91
2022-11-12T00:52:52.962Z,101817.38
2022-11-12T00:55:19.902Z,101821.50
2022-11-12T00:57:46.809Z,101815.06
2022-11-12T01:00:17.024Z,101814.72
2022-11-12T01:02:49.356Z,101808.38
2022-11-12T01:05:19.879Z,101802.97
2022-11-12T01:07:49.406Z,101804.47
2022-11-12T01:10:20.055Z,101804.41
2022-11-12T01:12:46.949Z,101813.91
2022-11-12T01:15:13.841Z,101803.22
2022-11-12T01:17:40.587Z,101798.63
2022-11-12T01:20:08.040Z,101801.09
2022-11-12T01:22:35.100Z,101776.19
2022-11-12T01:25:01.937Z,101796.41
2022-11-12T01:27:28.730Z,101790.13
2022-11-12T01:29:55.577Z,101782.13
2022-11-12T01:32:22.355Z,101785.44
2022-11-12T01:34:51.104Z,101785.34
2022-11-12T01:37:18.045Z,101785.28
2022-11-12T01:39:44.881Z,101781.56
2022-11-12T01:42:12.599Z,101780.59
2022-11-12T01:44:44.554Z,101782.16
2022-11-12T01:47:22.468Z,101776.66
2022-11-12T01:49:56.197Z,101772.06
2022-11-12T01:52:27.002Z,101769.34
2022-11-12T01:54:59.065Z,101769.19
2022-11-12T01:57:34.828Z,101767.31
2022-11-12T02:00:07.182Z,101766.22
2022-11-12T02:02:36.335Z,101750.81
2022-11-12T02:05:06.204Z,101766.88
2022-11-12T02:07:34.624Z,101770.34
2022-11-12T02:10:03.367Z,101773.00
2022-11-12T02:12:48.952Z,101774.72
2022-11-12T02:15:16.054Z,101777.34
2022-11-12T02:17:43.046Z,101777.25
2022-11-12T02:20:12.388Z,101778.03
2022-11-12T02:22:39.345Z,101784.13
2022-11-12T02:25:07.043Z,101783.28
2022-11-12T02:27:37.023Z,101785.06
2022-11-12T02:30:04.264Z,101783.38
2022-11-12T02:32:31.159Z,101777.06
2022-11-12T02:34:58.014Z,101778.78
2022-11-12T02:37:24.860Z,101771.69
2022-11-12T02:39:51.735Z,101769.22
2022-11-12T02:42:18.637Z,101774.41
2022-11-12T02:44:45.583Z,101768.31
2022-11-12T02:47:12.426Z,101777.06
2022-11-12T02:49:39.321Z,101774.50
2022-11-12T02:52:06.160Z,101770.19
2022-11-12T02:54:32.894Z,101772.66
2022-11-12T02:56:59.787Z,101775.28
2022-11-12T02:59:26.886Z,101770.03
2022-11-12T03:01:53.727Z,101771.78
2022-11-12T03:04:20.784Z,101767.56
2022-11-12T03:06:47.730Z,101759.63
2022-11-12T03:09:14.564Z,101769.44
2022-11-12T03:11:41.411Z,101765.00
2022-11-12T03:14:08.254Z,101768.47
2022-11-12T03:16:35.234Z,101763.28
2022-11-12T03:19:02.102Z,101769.34
2022-11-12T03:21:28.890Z,101767.72
2022-11-12T03:23:55.677Z,101768.47
2022-11-12T03:26:22.563Z,101771.13
2022-11-12T03:28:51.567Z,101766.81
2022-11-12T03:31:18.908Z,101774.63
2022-11-12T03:33:46.273Z,101772.84
2022-11-12T03:36:13.067Z,101773.75
2022-11-12T03:38:39.900Z,101765.25
2022-11-12T03:41:06.849Z,101770.53
2022-11-12T03:43:33.689Z,101736.19
2022-11-12T03:46:00.537Z,101751.66
2022-11-12T03:48:27.589Z,101768.59
2022-11-12T03:50:59.235Z,101754.66
2022-11-12T03:53:26.800Z,101760.00
2022-11-12T03:55:53.735Z,101750.50
2022-11-12T03:58:20.583Z,101756.69
2022-11-12T04:00:47.513Z,101762.06
2022-11-12T04:03:14.364Z,101751.59
2022-11-12T04:06:00.057Z,101769.22
2022-11-12T04:08:36.285Z,101750.09
2022-11-12T04:11:05.970Z,101754.59
2022-11-12T04:13:33.174Z,101749.50
2022-11-12T04:16:20.946Z,101756.63
2022-11-12T04:19:08.635Z,101757.56
2022-11-12T04:21:56.369Z,101765.56
2022-11-12T04:24:59.004Z,101768.25
2022-11-12T04:27:29.437Z,101762.25
2022-11-12T04:30:15.426Z,101766.59
2022-11-12T04:32:53.066Z,101763.06
2022-11-12T04:35:19.860Z,101762.25
2022-11-12T04:37:47.749Z,101758.84
2022-11-12T04:40:34.258Z,101757.13
2022-11-12T04:43:20.678Z,101752.06
2022-11-12T04:45:52.290Z,101753.75
2022-11-12T04:48:20.317Z,101750.09
2022-11-12T04:50:59.637Z,101748.31
2022-11-12T04:53:27.203Z,101751.94
2022-11-12T04:55:55.987Z,101747.72
2022-11-12T04:58:23.989Z,101744.22
2022-11-12T05:00:51.587Z,101733.84
2022-11-12T05:03:18.770Z,101739.03
2022-11-12T05:05:45.663Z,101739.97
2022-11-12T05:08:12.456Z,101741.69
2022-11-12T05:10:39.304Z,101745.22
2022-11-12T05:13:06.138Z,101737.34
2022-11-12T05:15:33.700Z,101730.78
2022-11-12T05:18:00.492Z,101738.28
2022-11-12T05:20:27.287Z,101746.94
2022-11-12T05:23:06.334Z,101742.59
2022-11-12T05:25:36.138Z,101737.34
2022-11-12T05:28:03.232Z,101740.13
2022-11-12T05:30:30.073Z,101732.75
2022-11-12T05:32:56.956Z,101728.59
2022-11-12T05:35:23.861Z,101731.22
2022-11-12T05:37:50.645Z,101734.84
2022-11-12T05:40:17.738Z,101732.13
2022-11-12T05:42:45.299Z,101735.53
2022-11-12T05:45:13.320Z,101735.66
2022-11-12T05:47:40.172Z,101750.50
2022-11-12T05:50:07.578Z,101740.81
2022-11-12T05:52:34.411Z,101737.34
2022-11-12T05:55:01.255Z,101733.84
2022-11-12T05:57:28.453Z,101733.00
2022-11-12T05:59:55.251Z,101739.22
2022-11-12T06:02:22.295Z,101733.84
2022-11-12T06:04:49.184Z,101733.00
2022-11-12T06:07:16.086Z,101738.44
2022-11-12T06:09:43.026Z,101735.72
2022-11-12T06:12:09.874Z,101731.31
2022-11-12T06:14:36.717Z,101731.38
2022-11-12T06:17:03.554Z,101726.94
2022-11-12T06:19:30.441Z,101722.56
2022-11-12T06:21:57.301Z,101722.56
2022-11-12T06:24:24.545Z,101715.56
2022-11-12T06:26:51.533Z,101717.38
2022-11-12T06:29:18.384Z,101718.22
2022-11-12T06:31:45.172Z,101714.66
2022-11-12T06:34:12.687Z,101737.41
2022-11-12T06:36:39.620Z,101724.22
2022-11-12T06:39:06.669Z,101736.41
2022-11-12T06:41:33.673Z,101729.09
2022-11-12T06:44:00.571Z,101737.41
2022-11-12T06:46:27.410Z,101736.41
2022-11-12T06:48:54.344Z,101734.69
2022-11-12T06:51:21.762Z,101739.97
2022-11-12T06:53:49.476Z,101733.00
2022-11-12T06:56:16.771Z,101739.88
2022-11-12T06:58:43.823Z,101743.44
2022-11-12T07:01:17.366Z,101743.56
2022-11-12T07:03:45.588Z,101727.03
2022-11-12T07:06:14.895Z,101734.84
2022-11-12T07:08:42.309Z,101728.84
2022-11-12T07:11:09.652Z,101736.56
2022-11-12T07:13:39.829Z,101728.59
2022-11-12T07:16:08.311Z,101736.56
2022-11-12T07:18:35.760Z,101734.78
2022-11-12T07:21:13.255Z,101731.47
2022-11-12T07:23:40.314Z,101724.41
2022-11-12T07:26:19.073Z,101719.41
2022-11-12T07:28:46.373Z,101717.69
2022-11-12T07:31:15.626Z,101729.09
2022-11-12T07:33:43.146Z,101727.31
2022-11-12T07:36:15.352Z,101722.53
2022-11-12T07:38:43.330Z,101734.94
2022-11-12T07:41:16.254Z,101745.47
2022-11-12T07:43:45.100Z,101743.81
2022-11-12T07:46:24.085Z,101754.34
2022-11-12T07:48:51.527Z,101743.81
2022-11-12T07:51:23.849Z,101753.47
2022-11-12T07:53:57.763Z,101768.25
2022-11-12T07:56:27.415Z,101757.81
2022-11-12T07:58:54.513Z,101760.53
2022-11-12T08:01:29.445Z,101761.44
2022-11-12T08:03:57.171Z,101765.63
2022-11-12T08:06:24.209Z,101767.44
2022-11-12T08:08:55.205Z,101764.88
2022-11-12T08:11:22.562Z,101767.44
2022-11-12T08:13:49.921Z,101755.94
2022-11-12T08:16:17.052Z,101760.19
2022-11-12T08:18:44.922Z,101756.63
2022-11-12T08:21:14.281Z,101754.75
2022-11-12T08:23:41.994Z,101759.09
2022-11-12T08:26:12.231Z,101757.50
2022-11-12T08:28:39.721Z,101759.84
2022-11-12T08:31:09.031Z,101752.03
2022-11-12T08:33:36.538Z,101759.09
2022-11-12T08:36:08.648Z,101752.81
2022-11-12T08:38:36.442Z,101751.19
2022-11-12T08:41:08.684Z,101761.72
2022-11-12T08:43:36.249Z,101765.28
2022-11-12T08:46:04.152Z,101761.03
2022-11-12T08:48:32.325Z,101759.09
2022-11-12T08:51:02.607Z,101759.16
2022-11-12T08:53:29.543Z,101753.81
2022-11-12T08:55:56.594Z,101754.59
2022-11-12T08:58:25.350Z,101757.81
2022-11-12T09:00:53.760Z,101758.56
2022-11-12T09:03:23.720Z,101753.13
2022-11-12T09:05:52.262Z,101760.03
2022-11-12T09:08:22.379Z,101756.44
2022-11-12T09:10:49.544Z,101757.88
2022-11-12T09:13:17.700Z,101763.16
2022-11-12T09:15:45.468Z,101759.59
2022-11-12T09:18:15.127Z,101768.25
2022-11-12T09:20:42.529Z,101768.88
2022-11-12T09:23:18.077Z,101774.13
2022-11-12T09:25:45.434Z,101769.72
2022-11-12T09:28:13.723Z,101780.00
2022-11-12T09:30:47.360Z,101775.69
2022-11-12T09:33:16.048Z,101776.44
2022-11-12T09:35:43.919Z,101778.91
2022-11-12T09:38:11.010Z,101776.88
2022-11-12T09:40:52.750Z,101780.25
2022-11-12T09:43:37.169Z,101770.22
2022-11-12T09:46:27.259Z,101777.00
2022-11-12T09:49:04.784Z,101772.25
2022-11-12T09:51:39.724Z,101772.25
2022-11-12T09:54:32.218Z,101760.72
2022-11-12T09:56:59.718Z,101774.41
2022-11-12T09:59:33.172Z,101772.75
2022-11-12T10:02:18.855Z,101770.78
2022-11-12T10:04:45.805Z,101769.91
2022-11-12T10:07:53.038Z,101768.31
2022-11-12T10:10:35.448Z,101758.81
2022-11-12T10:13:20.821Z,101769.34
2022-11-12T10:16:16.083Z,101750.50
2022-11-12T10:18:49.012Z,101741.59
2022-11-12T10:21:18.884Z,101739.78
2022-11-12T10:23:49.058Z,101737.06
2022-11-12T10:26:18.353Z,101738.66
2022-11-12T10:28:53.995Z,101733.69
2022-11-12T10:31:22.018Z,101730.00
2022-11-12T10:33:48.917Z,101734.81
2022-11-12T10:36:29.324Z,101745.06
2022-11-12T10:38:56.885Z,101734.81
2022-11-12T10:41:27.924Z,101741.97
2022-11-12T10:44:07.368Z,101731.31
2022-11-12T10:46:38.557Z,101734.72
2022-11-12T10:49:25.017Z,101735.09
2022-11-12T10:51:57.443Z,101736.53
2022-11-12T10:54:29.596Z,101722.97
2022-11-12T10:56:56.546Z,101721.75
2022-11-12T10:59:25.090Z,101733.16
2022-11-12T11:02:01.483Z,101738.44
2022-11-12T11:04:32.852Z,101732.75
2022-11-12T11:07:00.697Z,101737.44
2022-11-12T11:09:27.649Z,101735.38
2022-11-12T11:12:00.966Z,101730.31
2022-11-12T11:14:31.999Z,101739.53
2022-11-12T11:17:04.774Z,101728.88
2022-11-12T11:19:40.304Z,101723.13
2022-11-12T11:22:36.241Z,101730.16
2022-11-12T11:25:20.850Z,101732.38
2022-11-12T11:28:04.943Z,101734.44
2022-11-12T11:30:32.741Z,101732.28
2022-11-12T11:33:13.084Z,101732.72
2022-11-12T11:35:56.092Z,101736.19
2022-11-12T11:38:39.370Z,101727.63
2022-11-12T11:41:37.551Z,101724.41
2022-11-12T11:44:43.614Z,101714.06
2022-11-12T11:47:21.870Z,101718.38
2022-11-12T11:50:14.820Z,101697.44
2022-11-12T11:53:05.276Z,101698.97
2022-11-12T11:55:35.590Z,101694.47
2022-11-12T11:58:14.575Z,101698.22
2022-11-12T12:00:44.128Z,101690.91
2022-11-12T12:03:23.118Z,101684.84
2022-11-12T12:06:34.955Z,101688.69
2022-11-12T12:09:07.691Z,101683.31
2022-11-12T12:11:50.450Z,101684.84
2022-11-12T12:14:33.518Z,101678.81
2022-11-12T12:17:36.969Z,101674.66
2022-11-12T12:20:09.857Z,101678.31
2022-11-12T12:22:49.650Z,101670.50
2022-11-12T12:25:30.523Z,101658.75
2022-11-12T12:28:06.270Z,101652.34
2022-11-12T12:30:38.295Z,101644.69
2022-11-12T12:33:42.661Z,101647.16
2022-11-12T12:36:34.598Z,101642.38
2022-11-12T12:39:18.440Z,101636.09
2022-11-12T12:42:05.710Z,101641.34
2022-11-12T12:45:01.389Z,101636.75
2022-11-12T12:47:43.529Z,101638.34
2022-11-12T12:50:16.511Z,101638.34
2022-11-12T12:53:15.823Z,101627.13
2022-11-12T12:55:54.949Z,101623.47
2022-11-12T12:58:30.014Z,101617.97
2022-11-12T13:01:05.303Z,101610.81
2022-11-12T13:03:48.364Z,101607.06
2022-11-12T13:06:30.710Z,101601.59
2022-11-12T13:09:13.478Z,101595.84
2022-11-12T13:11:59.862Z,101593.13
2022-11-12T13:14:35.588Z,101598.22
2022-11-12T13:17:12.157Z,101593.78
2022-11-12T13:19:54.284Z,101603.91
2022-11-12T13:22:24.311Z,101608.31
2022-11-12T13:25:07.120Z,101608.47
2022-11-12T13:27:40.175Z,101605.06
2022-11-12T13:30:09.259Z,101612.44
2022-11-12T13:32:48.108Z,101612.91
2022-11-12T13:35:23.987Z,101603.28
2022-11-12T13:38:08.793Z,101597.34
2022-11-12T13:40:43.780Z,101600.06
2022-11-12T13:43:17.943Z,101597.34
2022-11-12T13:45:50.979Z,101598.41
2022-11-12T13:48:29.833Z,101585.78
2022-11-12T13:51:01.925Z,101580.28
2022-11-12T13:53:31.436Z,101575.47
2022-11-12T13:55:58.935Z,101570.03
2022-11-12T13:58:34.009Z,101577.59
2022-11-12T14:01:02.786Z,101585.31
2022-11-12T14:03:35.642Z,101576.53
2022-11-12T14:06:14.161Z,101593.34
2022-11-12T14:08:51.547Z,101573.59
2022-11-12T14:12:05.993Z,101570.19
2022-11-12T14:14:51.138Z,101564.28
2022-11-12T14:17:31.639Z,101572.94
2022-11-12T14:20:17.738Z,101575.00
2022-11-12T14:22:45.921Z,101573.97
2022-11-12T14:25:25.250Z,101565.97
2022-11-12T14:27:54.037Z,101555.25
2022-11-12T14:30:22.979Z,101554.28
2022-11-12T14:32:54.630Z,101551.44
2022-11-12T14:35:36.880Z,101554.09
2022-11-12T14:38:09.419Z,101545.13
2022-11-12T14:40:42.510Z,101534.56
2022-11-12T14:43:30.235Z,101533.06
2022-11-12T14:45:59.842Z,101532.41
2022-11-12T14:48:27.361Z,101528.63
2022-11-12T14:51:08.838Z,101526.41
2022-11-12T14:53:43.873Z,101527.34
2022-11-12T14:56:21.770Z,101526.41
2022-11-12T14:58:49.793Z,101520.38
2022-11-12T15:04:26.038Z,101513.56
2022-11-12T15:06:57.826Z,101512.84
2022-11-12T15:09:38.804Z,101511.53
2022-11-12T15:12:11.385Z,101505.09
2022-11-12T15:14:38.477Z,101513.09
2022-11-12T15:17:06.252Z,101510.47
2022-11-12T15:19:34.382Z,101514.72
2022-11-12T15:22:03.748Z,101519.25
2022-11-12T15:24:35.942Z,101501.06
2022-11-12T15:27:40.061Z,101499.84
2022-11-12T15:30:33.423Z,101492.78
2022-11-12T15:33:12.444Z,101492.78
2022-11-12T15:35:44.449Z,101492.78
2022-11-12T15:38:18.109Z,101492.13
2022-11-12T15:40:47.215Z,101495.91
2022-11-12T15:43:17.376Z,101476.47
2022-11-12T15:45:47.754Z,101472.16
2022-11-12T15:48:14.646Z,101480.25
2022-11-12T15:50:41.544Z,101474.16
2022-11-12T15:53:08.493Z,101473.28
2022-11-12T15:55:37.689Z,101464.38
2022-11-12T15:58:06.622Z,101474.44
2022-11-12T16:00:35.771Z,101476.31
2022-11-12T16:03:15.772Z,101467.75
2022-11-12T16:05:43.392Z,101481.03
2022-11-12T16:08:10.589Z,101474.03
2022-11-12T16:10:39.729Z,101470.84
2022-11-12T16:13:16.361Z,101480.63
2022-11-12T16:15:43.461Z,101466.63
2022-11-12T16:18:14.442Z,101465.00
2022-11-12T16:20:41.290Z,101472.72
2022-11-12T16:23:08.274Z,101465.09
2022-11-12T16:25:37.174Z,101473.13
2022-11-12T16:28:05.341Z,101470.66
2022-11-12T16:30:34.034Z,101461.06
2022-11-12T16:33:01.593Z,101463.03
2022-11-12T16:35:32.024Z,101466.72
2022-11-12T16:37:58.964Z,101471.41
2022-11-12T16:40:28.665Z,101467.34
2022-11-12T16:42:55.612Z,101468.56
2022-11-12T16:45:25.030Z,101457.63
2022-11-12T16:47:54.174Z,101473.91
2022-11-12T16:50:24.499Z,101456.47
2022-11-12T16:52:51.539Z,101460.25
2022-11-12T16:55:18.480Z,101452.56
2022-11-12T16:57:45.434Z,101451.16
2022-11-12T17:00:15.237Z,101440.78
2022-11-12T17:02:45.291Z,101447.94
2022-11-12T17:05:19.571Z,101449.91
2022-11-12T17:07:46.570Z,101447.28
2022-11-12T17:10:13.950Z,101454.16
2022-11-12T17:12:40.865Z,101453.28
2022-11-12T17:15:08.331Z,101456.88
2022-11-12T17:17:35.279Z,101460.94
2022-11-12T17:20:02.371Z,101451.25
2022-11-12T17:22:29.214Z,101455.41
2022-11-12T17:24:56.104Z,101457.69
2022-11-12T17:27:23.001Z,101464.69
2022-11-12T17:29:49.839Z,101460.06
2022-11-12T17:32:16.746Z,101471.44
2022-11-12T17:34:43.687Z,101472.28
2022-11-12T17:37:10.480Z,101466.75
2022-11-12T17:39:37.270Z,101470.22
2022-11-12T17:42:04.474Z,101470.03
2022-11-12T17:44:31.307Z,101476.19
2022-11-12T17:46:58.206Z,101482.22
2022-11-12T17:49:25.208Z,101474.09
2022-11-12T17:51:52.444Z,101472.34
2022-11-12T17:54:19.333Z,101472.41
2022-11-12T17:56:46.184Z,101463.56
2022-11-12T17:59:13.134Z,101468.81
2022-11-12T18:01:40.035Z,101468.66
2022-11-12T18:04:06.912Z,101471.38
2022-11-12T18:06:34.931Z,101444.94
2022-11-12T18:09:05.821Z,101465.53
2022-11-12T18:11:48.953Z,101473.09
2022-11-12T18:14:16.303Z,101459.06
2022-11-12T18:16:43.418Z,101458.13
2022-11-12T18:19:11.427Z,101458.19
2022-11-12T18:21:42.205Z,101461.63
2022-11-12T18:24:14.884Z,101455.56
2022-11-12T18:26:42.042Z,101461.78
2022-11-12T18:29:08.889Z,101448.63
2022-11-12T18:31:35.776Z,101453.03
2022-11-12T18:34:02.630Z,101459.34
2022-11-12T18:36:29.557Z,101454.06
2022-11-12T18:38:56.402Z,101463.09
2022-11-12T18:41:30.358Z,101456.31
2022-11-12T18:43:57.413Z,101461.28
2022-11-12T18:46:24.365Z,101461.69
2022-11-12T18:48:51.398Z,101462.81
2022-11-12T18:51:19.582Z,101456.88
2022-11-12T18:53:47.095Z,101452.63
2022-11-12T18:56:17.563Z,101452.13
2022-11-12T18:58:44.867Z,101452.50
2022-11-12T19:01:22.763Z,101419.25
2022-11-12T19:03:53.606Z,101438.09
2022-11-12T19:06:20.965Z,101446.84
2022-11-12T19:08:48.106Z,101434.88
2022-11-12T19:11:18.841Z,101440.16
2022-11-12T19:13:49.838Z,101436.75
2022-11-12T19:16:18.378Z,101424.59
2022-11-12T19:18:45.839Z,101415.97
2022-11-12T19:21:15.373Z,101414.25
2022-11-12T19:23:43.352Z,101407.56
2022-11-12T19:26:15.255Z,101415.38
2022-11-12T19:28:43.131Z,101404.09
2022-11-12T19:31:21.750Z,101403.34
2022-11-12T19:33:48.801Z,101403.00
2022-11-12T19:36:18.089Z,101398.34
2022-11-12T19:38:45.345Z,101407.22
2022-11-12T19:41:19.367Z,101403.00
2022-11-12T19:43:47.421Z,101392.06
2022-11-12T19:46:14.699Z,101394.03
2022-11-12T19:48:42.078Z,101388.19
2022-11-12T19:51:10.568Z,101384.19
2022-11-12T19:53:41.967Z,101385.13
2022-11-12T19:56:08.664Z,101388.03
2022-11-12T19:58:35.692Z,101389.72
2022-11-12T20:01:10.927Z,101391.66
2022-11-12T20:03:38.407Z,101393.69
2022-11-12T20:06:06.619Z,101392.09
2022-11-12T20:08:33.969Z,101384.47
2022-11-12T20:11:01.900Z,101377.59
2022-11-12T20:13:29.293Z,101389.78
2022-11-12T20:15:56.500Z,101382.94
2022-11-12T20:18:24.308Z,101383.19
2022-11-12T20:20:55.408Z,101386.84
2022-11-12T20:23:26.764Z,101390.16
2022-11-12T20:25:54.161Z,101396.09
2022-11-12T20:28:20.997Z,101384.38
2022-11-12T20:30:47.899Z,101372.81
2022-11-12T20:33:14.834Z,101378.09
2022-11-12T20:35:41.831Z,101392.19
2022-11-12T20:38:08.784Z,101378.28
2022-11-12T20:40:35.679Z,101368.16
2022-11-12T20:43:02.618Z,101374.97
2022-11-12T20:45:29.466Z,101390.75
2022-11-12T20:47:56.664Z,101364.53
2022-11-12T20:50:24.221Z,101367.09
2022-11-12T20:52:51.162Z,101361.16
2022-11-12T20:55:18.267Z,101355.19
2022-11-12T20:57:45.361Z,101359.63
2022-11-12T21:00:14.770Z,101359.78
2022-11-12T21:02:42.882Z,101362.31
2022-11-12T21:05:11.211Z,101353.69
2022-11-12T21:07:38.057Z,101340.53
2022-11-12T21:10:05.318Z,101352.75
2022-11-12T21:12:32.201Z,101353.69
2022-11-12T21:14:59.560Z,101359.63
2022-11-12T21:17:26.464Z,101361.47
2022-11-12T21:19:53.358Z,101372.84
2022-11-12T21:22:20.342Z,101370.97
2022-11-12T21:24:47.285Z,101368.53
2022-11-12T21:27:14.295Z,101366.66
2022-11-12T21:29:41.182Z,101358.69
2022-11-12T21:32:08.274Z,101359.53
2022-11-12T21:34:35.221Z,101363.88
2022-11-12T21:37:02.008Z,101365.38
2022-11-12T21:39:28.910Z,101372.16
2022-11-12T21:41:55.855Z,101366.66
2022-11-12T21:44:22.805Z,101359.50
2022-11-12T21:46:49.751Z,101350.63
2022-11-12T21:49:16.732Z,101338.22
2022-11-12T21:51:43.477Z,101339.00
2022-11-12T21:54:13.747Z,101321.41
2022-11-12T21:56:40.640Z,101330.94
2022-11-12T21:59:07.588Z,101328.31
2022-11-12T22:01:35.093Z,101334.22
2022-11-12T22:04:05.848Z,101313.09
2022-11-12T22:06:36.862Z,101318.38
2022-11-12T22:09:05.299Z,101323.72
2022-11-12T22:11:32.161Z,101318.97
2022-11-12T22:13:59.246Z,101317.25
2022-11-12T22:16:29.362Z,101319.97
2022-11-12T22:18:57.839Z,101317.53
2022-11-12T22:21:32.994Z,101330.56
2022-11-12T22:24:02.347Z,101318.19
2022-11-12T22:26:29.633Z,101320.84
2022-11-12T22:28:57.738Z,101324.97
2022-11-12T22:31:27.566Z,101310.91
